Nearby METAR Reports

 

LBGO - Gorna Orechovist, Bulgaria
Distance from station: NE 57km
Updated: 09/07/2020 11:00
Clear
Clear
 Wind from varies
Wind: varies 7 km/h
Temperature: 25°C
Dew Point: 13°C
Humidity: 47%
Barometer: 1019 hPa
Clouds: Clear
Visibility: 10 km
2020/07/09 08:00 LBGO 090800Z AUTO VRB04KT 9999 NCD 25/13 Q1019 NOSIG